KNBG/NBG METAR and TAF weather

Enter ICAO airport designator
Station Type Date Time Source
KNBG METAR 2019/02/16 02:55 UTC NOAA

KNBG 160255Z 20011KT 10SM BKN035 BKN045 OVC055 19/18 A2983 RMK AO2 SLP100 T01940183 56000 $


Station Type Date Time Source
KNBG Decoded METAR 2019/02/16 02:55 UTC NOAA

NEW ORLEANS NAVAL AIR STN, LA, United States (KNBG) 29-50N 90-01W
Feb 15, 2019 - 09:55 PM EST / 2019.02.16 0255 UTC
Wind: from the SSW (200 degrees) at 13 MPH (11 KT):0
Visibility: 10 mile(s):0
Sky conditions: overcast
Temperature: 66.9 F (19.4 C)
Dew Point: 64.9 F (18.3 C)
Relative Humidity: 93%
Pressure (altimeter): 29.83 in. Hg (1010 hPa)
Pressure tendency: 0.00 inches (0.0 hPa) lower than three hours ago
ob: KNBG 160255Z 20011KT 10SM BKN035 BKN045 OVC055 19/18 A2983 RMK AO2 SLP100 T01940183 56000
cycle: 3

Station Type Date Time Source
KNBG TAF 2019/02/15 23:07 UTC NOAA

TAF KNBG 1523/1623 19012KT 9999 SCT025 OVC030 QNH2976INS
BECMG 1602/1604 25010KT 8000 BR BKN020 BKN100 OVC250 QNH2981INS
TEMPO 1606/1612 24004KT 0800 FG BKN008 OVC015
BECMG 1612/1614 23006KT 3200 BR VCSH OVC004 QNH2978INS
TEMPO 1614/1620 4800 RA BR BKN008 AUTOMATED SENSOR METWATCH 1605 TIL 1613 T17/1610Z T23/1618Z FN20038


Example: see airport list